Time;durP1;ratioP1;P1;durP2;ratioP2;P2;SDS_P1;SDS_P2;PMS_P1;PMS_P2;Temp;Humidity;BMP_temperature;BMP_pressure;BME280_temperature;BME280_humidity;BME280_pressure;Samples;Min_cycle;Max_cycle;Signal;HPM_P1;HPM_P2
2024/01/28 00:01:41;;;;;;;6.80;6.20;;;;;;;3.17;100.00;98211.53;5112202;28;20611;-58
2024/01/28 00:04:08;;;;;;;9.17;6.33;;;;;;;3.14;100.00;98203.81;5112196;28;20293;-57
2024/01/28 00:06:35;;;;;;;8.20;6.43;;;;;;;3.21;100.00;98205.25;5112019;28;20243;-58
2024/01/28 00:09:02;;;;;;;7.33;6.63;;;;;;;3.06;100.00;98198.00;5111180;28;20211;-58
2024/01/28 00:11:31;;;;;;;9.97;6.87;;;;;;;3.09;100.00;98203.13;5111745;28;20209;-58
2024/01/28 00:13:58;;;;;;;8.50;6.47;;;;;;;3.02;100.00;98202.50;5111585;28;20197;-58
2024/01/28 00:16:24;;;;;;;8.20;6.50;;;;;;;3.04;100.00;98208.53;5111412;28;20320;-58
2024/01/28 00:18:57;;;;;;;8.80;6.80;;;;;;;2.92;100.00;98209.00;5111695;28;20292;-59
2024/01/28 00:21:24;;;;;;;7.07;6.40;;;;;;;2.92;100.00;98202.00;5111521;28;20194;-59
2024/01/28 00:23:50;;;;;;;8.70;6.60;;;;;;;2.94;100.00;98199.34;5112138;28;20201;-58
2024/01/28 00:26:20;;;;;;;10.20;7.17;;;;;;;2.89;100.00;98202.13;5111219;28;20528;-58
2024/01/28 00:28:48;;;;;;;9.43;7.50;;;;;;;2.84;100.00;98198.84;5111958;28;20205;-58
2024/01/28 00:31:14;;;;;;;8.43;7.10;;;;;;;2.78;100.00;98199.06;5111375;28;20209;-58
2024/01/28 00:33:42;;;;;;;9.10;7.00;;;;;;;2.80;100.00;98197.25;5111505;28;20197;-58
2024/01/28 00:36:09;;;;;;;8.63;7.33;;;;;;;2.79;100.00;98184.25;5111340;28;20225;-59
2024/01/28 00:38:35;;;;;;;10.70;7.57;;;;;;;2.75;100.00;98191.34;5111598;28;20279;-59
2024/01/28 00:41:02;;;;;;;8.00;6.93;;;;;;;2.71;100.00;98184.53;5113306;28;20296;-59
2024/01/28 00:43:29;;;;;;;11.10;7.47;;;;;;;2.73;100.00;98182.69;5113396;28;20232;-58
2024/01/28 00:45:57;;;;;;;8.97;7.00;;;;;;;2.75;100.00;98182.66;5111493;28;20638;-58
2024/01/28 00:48:26;;;;;;;11.57;8.10;;;;;;;2.70;100.00;98184.56;5112080;28;20540;-58
2024/01/28 00:50:52;;;;;;;8.40;7.20;;;;;;;2.72;100.00;98175.78;5111408;28;20514;-58
2024/01/28 00:53:19;;;;;;;8.97;7.60;;;;;;;2.80;100.00;98176.34;5111755;28;20292;-58
2024/01/28 00:55:46;;;;;;;7.87;7.07;;;;;;;2.69;100.00;98177.66;5110492;28;20289;-58
2024/01/28 00:58:13;;;;;;;8.70;7.83;;;;;;;2.72;100.00;98178.41;5111198;28;20633;-58
2024/01/28 01:00:41;;;;;;;9.57;7.70;;;;;;;2.76;100.00;98172.16;5110492;28;20297;-58
2024/01/28 01:03:09;;;;;;;9.57;7.67;;;;;;;2.76;100.00;98174.78;5111407;28;20209;-58
2024/01/28 01:05:35;;;;;;;9.60;8.03;;;;;;;2.75;100.00;98167.84;5111285;28;20205;-59
2024/01/28 01:08:04;;;;;;;9.40;8.20;;;;;;;2.70;100.00;98179.34;5135365;28;20184;-57
2024/01/28 01:10:31;;;;;;;10.57;8.90;;;;;;;2.69;100.00;98173.31;5130329;28;20232;-57
2024/01/28 01:12:57;;;;;;;11.23;8.73;;;;;;;2.72;100.00;98173.19;5128149;28;20694;-58
2024/01/28 01:15:24;;;;;;;11.73;9.17;;;;;;;2.68;100.00;98175.97;5111639;28;20225;-57
2024/01/28 01:17:53;;;;;;;11.60;9.13;;;;;;;2.65;100.00;98171.72;5110599;28;20292;-58
2024/01/28 01:20:20;;;;;;;9.87;8.43;;;;;;;2.62;100.00;98177.06;5110703;28;20209;-58
2024/01/28 01:22:47;;;;;;;11.37;8.80;;;;;;;2.70;100.00;98174.13;5111441;28;20296;-58
2024/01/28 01:25:14;;;;;;;12.43;8.40;;;;;;;2.63;100.00;98173.50;5110655;28;20211;-57
2024/01/28 01:27:41;;;;;;;11.60;8.60;;;;;;;2.66;100.00;98177.78;5110739;28;20236;-58
2024/01/28 01:30:08;;;;;;;10.07;8.67;;;;;;;2.60;100.00;98167.56;5110797;28;20555;-58
2024/01/28 01:32:37;;;;;;;10.80;8.53;;;;;;;2.56;100.00;98169.44;5110702;28;20280;-57
2024/01/28 01:35:03;;;;;;;10.47;8.33;;;;;;;2.60;100.00;98168.41;5110735;28;20349;-57
2024/01/28 01:37:32;;;;;;;13.40;8.53;;;;;;;2.57;100.00;98175.50;5110644;28;20637;-57
2024/01/28 01:40:02;;;;;;;9.57;8.20;;;;;;;2.56;100.00;98177.25;5110982;28;20262;-57
2024/01/28 01:42:28;;;;;;;8.63;7.83;;;;;;;2.63;100.00;98175.28;5110523;28;20208;-57
2024/01/28 01:44:55;;;;;;;9.37;7.80;;;;;;;2.57;100.00;98178.97;5114245;28;20193;-58
2024/01/28 01:47:25;;;;;;;9.83;7.77;;;;;;;2.50;100.00;98177.50;5114233;28;20329;-58
2024/01/28 01:49:52;;;;;;;12.63;8.63;;;;;;;2.50;100.00;98177.50;5111773;28;20193;-56
2024/01/28 01:52:19;;;;;;;8.73;7.83;;;;;;;2.54;100.00;98178.22;5110449;28;20201;-58
2024/01/28 01:54:50;;;;;;;9.90;7.57;;;;;;;2.57;100.00;98181.59;5110040;28;20209;-57
2024/01/28 01:57:19;;;;;;;10.03;8.27;;;;;;;2.52;100.00;98178.28;5110819;28;20209;-58
2024/01/28 01:59:46;;;;;;;9.43;7.93;;;;;;;2.54;100.00;98179.09;5110395;28;20688;-58
2024/01/28 02:02:13;;;;;;;10.27;8.37;;;;;;;2.45;100.00;98176.78;5110652;28;20197;-58
2024/01/28 02:04:40;;;;;;;11.10;8.67;;;;;;;2.47;100.00;98175.00;5110608;28;20259;-58
2024/01/28 02:07:07;;;;;;;9.13;7.70;;;;;;;2.40;100.00;98181.34;5110681;28;20201;-58
2024/01/28 02:09:34;;;;;;;8.93;7.30;;;;;;;2.40;100.00;98173.53;5110599;28;20193;-58
2024/01/28 02:12:02;;;;;;;9.77;7.90;;;;;;;2.43;100.00;98173.41;5110473;28;20213;-57
2024/01/28 02:14:31;;;;;;;9.27;7.73;;;;;;;2.42;100.00;98171.69;5111095;28;20197;-57
2024/01/28 02:16:59;;;;;;;9.10;7.20;;;;;;;2.36;100.00;98170.16;5110209;28;20290;-58
2024/01/28 02:19:26;;;;;;;8.87;7.97;;;;;;;2.46;100.00;98170.69;5110403;28;20204;-58
2024/01/28 02:21:54;;;;;;;9.67;8.27;;;;;;;2.44;100.00;98172.50;5111135;28;20250;-58
2024/01/28 02:24:22;;;;;;;10.63;7.40;;;;;;;2.35;100.00;98173.69;5110448;28;20204;-58
2024/01/28 02:26:48;;;;;;;10.13;7.57;;;;;;;2.33;100.00;98178.13;5110368;28;20211;-57
2024/01/28 02:29:16;;;;;;;11.07;8.23;;;;;;;2.35;100.00;98178.91;5110466;28;20289;-59
2024/01/28 02:31:45;;;;;;;11.20;8.27;;;;;;;2.37;100.00;98171.03;5112150;28;20857;-58
2024/01/28 02:34:12;;;;;;;8.90;8.00;;;;;;;2.35;100.00;98171.06;5114210;28;20205;-58
2024/01/28 02:36:38;;;;;;;10.00;8.47;;;;;;;2.34;100.00;98177.19;5113393;28;20225;-58
2024/01/28 02:39:05;;;;;;;12.87;8.10;;;;;;;2.37;100.00;98178.84;5114189;28;20204;-56
2024/01/28 02:41:33;;;;;;;12.20;7.90;;;;;;;2.39;100.00;98180.50;5113122;28;20286;-57
2024/01/28 02:43:59;;;;;;;12.47;7.80;;;;;;;2.44;100.00;98169.91;5114005;28;20213;-58
2024/01/28 02:46:26;;;;;;;12.93;8.40;;;;;;;2.43;100.00;98162.97;5112575;28;20255;-58
2024/01/28 02:48:54;;;;;;;9.67;8.37;;;;;;;2.42;100.00;98163.84;5113777;28;20202;-58
2024/01/28 02:51:21;;;;;;;8.53;7.63;;;;;;;2.49;100.00;98167.94;5113358;28;20208;-58
2024/01/28 02:53:50;;;;;;;12.43;8.40;;;;;;;2.54;100.00;98163.41;5113747;28;20197;-58
2024/01/28 02:56:17;;;;;;;11.10;8.03;;;;;;;2.57;100.00;98163.31;5113510;28;20521;-57
2024/01/28 02:58:47;;;;;;;9.70;8.73;;;;;;;2.54;100.00;98158.19;5113893;28;20209;-58
2024/01/28 03:01:14;;;;;;;11.37;8.97;;;;;;;2.57;100.00;98163.31;5113871;28;20547;-57
2024/01/28 03:03:40;;;;;;;12.13;9.00;;;;;;;2.40;100.00;98155.25;5113469;28;20247;-58
2024/01/28 03:06:07;;;;;;;11.50;9.40;;;;;;;2.41;100.00;98152.56;5113393;28;20621;-56
2024/01/28 03:08:34;;;;;;;11.30;8.67;;;;;;;2.42;100.00;98156.03;5113879;28;20219;-57
2024/01/28 03:11:01;;;;;;;10.53;8.47;;;;;;;2.44;100.00;98156.84;5112862;28;20633;-57
2024/01/28 03:13:27;;;;;;;13.67;9.30;;;;;;;2.41;100.00;98162.16;5113019;28;20554;-56
2024/01/28 03:15:55;;;;;;;11.13;9.37;;;;;;;2.44;100.00;98165.50;5112730;28;20695;-57
2024/01/28 03:18:22;;;;;;;10.60;8.77;;;;;;;2.52;100.00;98162.63;5113088;28;20213;-58
2024/01/28 03:20:49;;;;;;;9.53;8.47;;;;;;;2.50;100.00;98164.44;5113234;28;20193;-58
2024/01/28 03:23:16;;;;;;;9.70;8.73;;;;;;;2.55;100.00;98166.88;5113230;28;20205;-58
2024/01/28 03:25:43;;;;;;;12.17;8.83;;;;;;;2.60;100.00;98165.78;5112860;28;20597;-59
2024/01/28 03:28:09;;;;;;;13.00;8.73;;;;;;;2.66;100.00;98168.16;5111664;28;20220;-58
2024/01/28 03:30:36;;;;;;;11.33;8.97;;;;;;;2.74;100.00;98165.28;5127265;28;20208;-57
2024/01/28 03:33:04;;;;;;;11.77;8.83;;;;;;;2.73;100.00;98164.41;5113925;28;20281;-58
2024/01/28 03:35:32;;;;;;;10.77;8.97;;;;;;;2.77;100.00;98159.94;5113700;28;20193;-57
2024/01/28 03:37:58;;;;;;;11.23;8.53;;;;;;;2.77;100.00;98160.78;5124175;28;20288;-58
2024/01/28 03:40:26;;;;;;;11.30;8.93;;;;;;;2.81;100.00;98151.94;5139071;28;20200;-57
2024/01/28 03:42:53;;;;;;;11.97;9.20;;;;;;;2.87;100.00;98158.69;5136246;28;20252;-57
2024/01/28 03:45:19;;;;;;;11.87;9.53;;;;;;;2.87;100.00;98164.75;5132200;28;20604;-58
2024/01/28 03:47:46;;;;;;;10.97;8.70;;;;;;;2.94;100.00;98168.00;5113590;28;20189;-58
2024/01/28 03:50:19;;;;;;;9.90;8.87;;;;;;;2.96;100.00;98167.03;5113277;28;20198;-58
2024/01/28 03:52:46;;;;;;;10.80;8.97;;;;;;;3.03;100.00;98166.78;5112166;28;20231;-58
2024/01/28 03:55:13;;;;;;;11.63;8.93;;;;;;;3.04;100.00;98155.41;5112574;28;20201;-56
2024/01/28 03:57:40;;;;;;;12.63;8.90;;;;;;;3.11;100.00;98159.50;5112747;28;20213;-58
2024/01/28 04:00:11;;;;;;;10.23;8.37;;;;;;;3.09;100.00;98163.91;5111705;28;20239;-58
2024/01/28 04:02:38;;;;;;;10.77;8.97;;;;;;;3.15;100.00;98155.84;5112348;28;20293;-58
2024/01/28 04:05:11;;;;;;;9.93;8.53;;;;;;;3.19;100.00;98162.66;5112509;28;20205;-58
2024/01/28 04:07:38;;;;;;;9.60;8.57;;;;;;;3.24;100.00;98161.56;5112344;28;20193;-58
2024/01/28 04:10:06;;;;;;;10.27;8.57;;;;;;;3.28;100.00;98164.91;5111528;28;20197;-58
2024/01/28 04:12:34;;;;;;;10.30;9.20;;;;;;;3.20;100.00;98156.50;5112272;28;20201;-57
2024/01/28 04:15:01;;;;;;;8.87;8.03;;;;;;;3.31;100.00;98164.78;5111893;28;20281;-58
2024/01/28 04:17:28;;;;;;;10.90;8.63;;;;;;;3.39;100.00;98154.88;5112555;28;20216;-58
2024/01/28 04:19:54;;;;;;;13.30;8.70;;;;;;;3.39;100.00;98167.94;5111859;28;20197;-58
2024/01/28 04:22:21;;;;;;;12.00;8.40;;;;;;;3.39;100.00;98165.31;5111689;28;20198;-57
2024/01/28 04:24:49;;;;;;;11.17;9.03;;;;;;;3.48;100.00;98162.31;5110833;28;20219;-58
2024/01/28 04:27:15;;;;;;;11.73;9.47;;;;;;;3.52;100.00;98171.75;5111987;28;20197;-57
2024/01/28 04:29:42;;;;;;;10.90;9.00;;;;;;;3.55;100.00;98171.63;5112270;28;20533;-58
2024/01/28 04:32:10;;;;;;;9.60;8.60;;;;;;;3.58;100.00;98176.72;5112012;28;20207;-58
2024/01/28 04:34:37;;;;;;;9.83;8.40;;;;;;;3.58;100.00;98181.94;5111864;28;20205;-58
2024/01/28 04:37:06;;;;;;;10.40;9.20;;;;;;;3.67;100.00;98186.81;5112126;28;20312;-58
2024/01/28 04:39:34;;;;;;;11.33;9.83;;;;;;;3.72;100.00;98176.19;5111812;28;20520;-58
2024/01/28 04:42:03;;;;;;;11.00;9.00;;;;;;;3.71;100.00;98182.31;5120482;28;20239;-59
2024/01/28 04:44:29;;;;;;;10.27;8.93;;;;;;;3.72;100.00;98182.22;5130207;28;20960;-58
2024/01/28 04:46:57;;;;;;;11.90;8.70;;;;;;;3.75;100.00;98179.50;5129629;28;20802;-57
2024/01/28 04:49:24;;;;;;;10.53;8.80;;;;;;;3.79;100.00;98182.84;5112935;28;20212;-57
2024/01/28 04:51:51;;;;;;;13.37;9.73;;;;;;;3.79;100.00;98182.84;5112797;28;20193;-58
2024/01/28 04:54:20;;;;;;;11.13;9.13;;;;;;;3.83;100.00;98181.78;5111513;28;20197;-59
2024/01/28 04:56:46;;;;;;;11.80;9.47;;;;;;;3.81;100.00;98183.63;5112863;28;20286;-58
2024/01/28 04:59:14;;;;;;;10.97;9.17;;;;;;;3.86;100.00;98172.03;5116188;28;20661;-59
2024/01/28 05:01:43;;;;;;;12.03;9.70;;;;;;;3.93;100.00;98178.72;5114900;28;20190;-60
2024/01/28 05:04:09;;;;;;;11.43;9.83;;;;;;;3.93;100.00;98175.28;5114559;28;20197;-58
2024/01/28 05:06:36;;;;;;;13.57;11.30;;;;;;;4.01;100.00;98179.25;5115322;28;20287;-58
2024/01/28 05:09:03;;;;;;;14.23;10.27;;;;;;;4.00;100.00;98174.91;5114138;28;20586;-59
2024/01/28 05:11:31;;;;;;;13.90;11.00;;;;;;;4.04;100.00;98185.28;5112550;28;20216;-58
2024/01/28 05:13:57;;;;;;;13.53;11.27;;;;;;;4.05;100.00;98176.50;5113424;28;20553;-58
2024/01/28 05:16:25;;;;;;;14.50;12.83;;;;;;;4.12;100.00;98178.78;5112799;28;20207;-59
2024/01/28 05:18:52;;;;;;;17.53;13.70;;;;;;;4.18;100.00;98182.94;5112848;28;20287;-58
2024/01/28 05:21:19;;;;;;;17.17;13.40;;;;;;;4.19;100.00;98182.84;5113466;28;20219;-59
2024/01/28 05:23:46;;;;;;;15.27;13.40;;;;;;;4.18;100.00;98193.41;5113074;28;20215;-59
2024/01/28 05:26:14;;;;;;;15.57;13.80;;;;;;;4.27;100.00;98195.59;5113204;28;20220;-58
2024/01/28 05:28:41;;;;;;;17.07;14.07;;;;;;;4.28;100.00;98194.69;5112027;28;20543;-57
2024/01/28 05:31:08;;;;;;;15.83;13.00;;;;;;;4.28;100.00;98190.31;5112235;28;20278;-57
2024/01/28 05:33:37;;;;;;;15.63;13.57;;;;;;;4.28;100.00;98185.09;5111282;28;20213;-58
2024/01/28 05:36:15;;;;;;;16.17;11.67;;;;;;;4.24;100.00;98185.28;5111457;28;20535;-58
2024/01/28 05:38:41;;;;;;;15.40;10.90;;;;;;;4.30;100.00;98188.47;5111487;28;20211;-58
2024/01/28 05:41:08;;;;;;;13.93;10.50;;;;;;;4.23;100.00;98189.66;5110130;28;20729;-59
2024/01/28 05:43:35;;;;;;;14.63;11.63;;;;;;;4.30;100.00;98192.84;5124618;28;20201;-58
2024/01/28 05:46:03;;;;;;;17.87;12.63;;;;;;;4.30;100.00;98193.72;5127894;28;20213;-59
2024/01/28 05:48:29;;;;;;;16.90;12.00;;;;;;;4.22;100.00;98190.56;5119029;28;20626;-58
2024/01/28 05:50:57;;;;;;;13.73;11.30;;;;;;;4.26;100.00;98188.66;5115158;28;20701;-58
2024/01/28 05:53:24;;;;;;;13.03;11.53;;;;;;;4.28;100.00;98184.22;5113106;28;20201;-57
2024/01/28 05:55:51;;;;;;;11.87;10.57;;;;;;;4.35;100.00;98201.38;5110291;28;20208;-58
2024/01/28 05:58:18;;;;;;;14.90;11.83;;;;;;;4.38;100.00;98194.22;5111241;28;20235;-58
2024/01/28 06:00:47;;;;;;;16.70;12.30;;;;;;;4.30;100.00;98193.72;5110758;28;20757;-58
2024/01/28 06:03:15;;;;;;;14.63;12.20;;;;;;;4.39;100.00;98190.66;5111198;28;20280;-59
2024/01/28 06:05:42;;;;;;;15.10;12.03;;;;;;;4.43;100.00;98192.25;5112658;28;20197;-58
2024/01/28 06:08:10;;;;;;;14.90;12.40;;;;;;;4.41;100.00;98193.25;5114856;28;20214;-58
2024/01/28 06:10:36;;;;;;;16.17;12.73;;;;;;;4.38;100.00;98196.00;5113945;28;20201;-58
2024/01/28 06:13:03;;;;;;;17.20;12.77;;;;;;;4.41;100.00;98198.47;5114443;28;20197;-58
2024/01/28 06:15:30;;;;;;;15.70;13.27;;;;;;;4.50;100.00;98192.81;5114188;28;20292;-58
2024/01/28 06:17:56;;;;;;;18.07;14.53;;;;;;;4.50;100.00;98200.69;5114615;28;20235;-58
2024/01/28 06:20:23;;;;;;;18.80;15.13;;;;;;;4.55;100.00;98203.09;5114414;28;20537;-59
2024/01/28 06:22:50;;;;;;;17.87;14.27;;;;;;;4.49;100.00;98202.47;5113829;28;20197;-58
2024/01/28 06:25:18;;;;;;;17.20;14.40;;;;;;;4.49;100.00;98193.75;5113879;28;20201;-58
2024/01/28 06:27:45;;;;;;;16.87;14.00;;;;;;;4.55;100.00;98187.38;5114471;28;20197;-59
2024/01/28 06:30:13;;;;;;;16.80;13.97;;;;;;;4.51;100.00;98186.66;5114198;28;20630;-59
2024/01/28 06:32:40;;;;;;;16.90;14.27;;;;;;;4.54;100.00;98191.75;5114579;28;20219;-59
2024/01/28 06:35:07;;;;;;;17.10;14.27;;;;;;;4.62;100.00;98183.56;5113991;28;20213;-59
2024/01/28 06:37:34;;;;;;;18.27;14.87;;;;;;;4.54;100.00;98191.75;5113983;28;20216;-58
2024/01/28 06:40:00;;;;;;;18.90;14.63;;;;;;;4.48;100.00;98187.66;5113725;28;20225;-59
2024/01/28 06:42:31;;;;;;;18.77;15.43;;;;;;;4.47;100.00;98190.34;5113747;28;20205;-59
2024/01/28 06:44:58;;;;;;;18.10;15.57;;;;;;;4.48;100.00;98192.06;5114454;28;20280;-60
2024/01/28 06:47:25;;;;;;;18.67;15.37;;;;;;;4.49;100.00;98188.53;5113713;28;20197;-58
2024/01/28 06:49:52;;;;;;;17.70;15.60;;;;;;;4.49;100.00;98199.00;5114121;28;20204;-59
2024/01/28 06:52:18;;;;;;;16.93;14.80;;;;;;;4.53;100.00;98193.53;5113255;28;20653;-59
2024/01/28 06:54:45;;;;;;;17.87;15.97;;;;;;;4.53;100.00;98199.72;5113591;28;20292;-57
2024/01/28 06:57:13;;;;;;;17.80;15.07;;;;;;;4.49;100.00;98188.53;5114071;28;20236;-58
2024/01/28 06:59:43;;;;;;;18.33;14.80;;;;;;;4.53;100.00;98190.09;5115257;28;20231;-58
2024/01/28 07:02:09;;;;;;;19.07;14.87;;;;;;;4.53;100.00;98195.34;5117427;28;20209;-59
2024/01/28 07:04:36;;;;;;;16.40;14.70;;;;;;;4.55;100.00;98192.63;5119866;28;20205;-59
2024/01/28 07:07:03;;;;;;;18.03;15.40;;;;;;;4.58;100.00;98192.47;5114204;28;20197;-58
2024/01/28 07:09:32;;;;;;;18.60;14.40;;;;;;;4.53;100.00;98195.34;5112828;28;20300;-58
2024/01/28 07:11:59;;;;;;;15.23;13.13;;;;;;;4.58;100.00;98202.97;5113472;28;20201;-58
2024/01/28 07:14:25;;;;;;;16.07;14.00;;;;;;;4.59;100.00;98200.28;5113323;28;20210;-58
2024/01/28 07:16:53;;;;;;;16.33;14.53;;;;;;;4.61;100.00;98208.06;5112419;28;20216;-58
2024/01/28 07:19:20;;;;;;;17.57;15.37;;;;;;;4.62;100.00;98210.63;5113606;28;20197;-58
2024/01/28 07:21:47;;;;;;;15.60;13.90;;;;;;;4.57;100.00;98207.34;5115181;28;20230;-59
2024/01/28 07:24:14;;;;;;;17.03;15.07;;;;;;;4.64;100.00;98206.16;5115845;28;20244;-59
2024/01/28 07:26:41;;;;;;;15.73;14.10;;;;;;;4.67;100.00;98203.41;5115974;28;20685;-59
2024/01/28 07:29:08;;;;;;;18.53;14.97;;;;;;;4.62;100.00;98204.53;5114734;28;20286;-58
2024/01/28 07:31:35;;;;;;;17.03;15.30;;;;;;;4.65;100.00;98207.00;5113679;28;20207;-58
2024/01/28 07:34:03;;;;;;;16.33;14.37;;;;;;;4.62;100.00;98210.63;5113977;28;20291;-58
2024/01/28 07:36:30;;;;;;;17.47;14.90;;;;;;;4.61;100.00;98210.69;5113206;28;20197;-58
2024/01/28 07:38:56;;;;;;;18.37;15.10;;;;;;;4.71;100.00;98206.75;5113199;28;20239;-58
2024/01/28 07:41:24;;;;;;;16.03;14.33;;;;;;;4.67;100.00;98206.03;5112008;28;20220;-58
2024/01/28 07:43:50;;;;;;;16.70;14.93;;;;;;;4.69;100.00;98205.97;5113647;28;20220;-58
2024/01/28 07:46:17;;;;;;;16.93;13.90;;;;;;;4.66;100.00;98206.94;5115132;28;20605;-58
2024/01/28 07:48:44;;;;;;;15.10;13.53;;;;;;;4.56;100.00;98203.03;5114286;28;20205;-57
2024/01/28 07:51:22;;;;;;;16.07;14.37;;;;;;;4.59;100.00;98199.44;5112524;28;20201;-57
2024/01/28 07:53:48;;;;;;;17.27;14.00;;;;;;;4.58;100.00;98193.34;5112975;28;20193;-58
2024/01/28 07:56:16;;;;;;;14.73;13.13;;;;;;;4.64;100.00;98197.47;5113315;28;20262;-57
2024/01/28 07:58:42;;;;;;;16.97;15.17;;;;;;;4.72;100.00;98201.44;5113104;28;20599;-57
2024/01/28 08:01:12;;;;;;;17.37;14.20;;;;;;;4.71;100.00;98204.97;5126576;28;20229;-57
2024/01/28 08:03:39;;;;;;;15.63;13.37;;;;;;;4.76;100.00;98216.09;5130526;28;20193;-58
2024/01/28 08:06:07;;;;;;;15.53;13.90;;;;;;;4.65;100.00;98217.50;5125227;28;20217;-58
2024/01/28 08:08:36;;;;;;;15.33;13.73;;;;;;;4.59;100.00;98216.00;5127023;28;20208;-58
2024/01/28 08:11:03;;;;;;;16.83;13.83;;;;;;;4.66;100.00;98211.34;5113187;28;20215;-58
2024/01/28 08:13:30;;;;;;;15.40;13.83;;;;;;;4.68;100.00;98207.72;5113119;28;20220;-58
2024/01/28 08:16:01;;;;;;;15.43;13.83;;;;;;;4.67;100.00;98202.56;5112438;28;20266;-59
2024/01/28 08:18:28;;;;;;;15.67;13.43;;;;;;;4.71;100.00;98194.47;5113810;28;20611;-58
2024/01/28 08:20:54;;;;;;;16.13;13.60;;;;;;;4.77;100.00;98196.84;5114048;28;20199;-59
2024/01/28 08:23:21;;;;;;;16.30;14.03;;;;;;;4.80;100.00;98196.69;5114842;28;20824;-58
2024/01/28 08:25:49;;;;;;;16.00;14.30;;;;;;;4.83;100.00;98195.69;5113068;28;20660;-58
2024/01/28 08:28:15;;;;;;;15.30;13.47;;;;;;;4.83;100.00;98204.41;5111563;28;20219;-57
2024/01/28 08:30:42;;;;;;;16.10;14.40;;;;;;;4.83;100.00;98201.78;5112228;28;20215;-58
2024/01/28 08:33:09;;;;;;;15.67;14.07;;;;;;;4.79;100.00;98207.25;5112460;28;20216;-58
2024/01/28 08:35:36;;;;;;;15.80;14.20;;;;;;;4.85;100.00;98207.81;5112734;28;20526;-58
2024/01/28 08:38:03;;;;;;;16.33;14.57;;;;;;;4.85;100.00;98215.66;5111749;28;20692;-58
2024/01/28 08:40:31;;;;;;;15.40;13.67;;;;;;;4.86;100.00;98206.91;5117583;28;20201;-57
2024/01/28 08:42:59;;;;;;;15.90;14.20;;;;;;;4.72;100.00;98200.56;5135724;28;20203;-58
2024/01/28 08:45:26;;;;;;;18.23;15.77;;;;;;;4.69;100.00;98206.81;5134534;28;20205;-58
2024/01/28 08:47:52;;;;;;;16.17;14.47;;;;;;;4.81;100.00;98205.41;5133250;28;20223;-58
2024/01/28 08:50:19;;;;;;;15.87;14.03;;;;;;;4.82;100.00;98207.94;5118010;28;20231;-59
2024/01/28 08:52:46;;;;;;;16.20;14.50;;;;;;;4.72;100.00;98205.81;5112172;28;20201;-58
2024/01/28 08:55:12;;;;;;;16.97;15.17;;;;;;;4.70;100.00;98207.66;5111454;28;20201;-56
2024/01/28 08:57:41;;;;;;;16.40;14.53;;;;;;;4.86;100.00;98220.00;5111825;28;20630;-57
2024/01/28 09:00:14;;;;;;;17.57;14.33;;;;;;;4.84;100.00;98216.63;5111583;28;20241;-59
2024/01/28 09:02:41;;;;;;;15.80;14.10;;;;;;;4.79;100.00;98213.34;5111922;28;20282;-58
2024/01/28 09:05:10;;;;;;;17.33;15.33;;;;;;;4.94;100.00;98217.03;5111602;28;20644;-58
2024/01/28 09:07:36;;;;;;;19.77;15.77;;;;;;;4.90;100.00;98211.09;5111601;28;20292;-58
2024/01/28 09:10:03;;;;;;;18.73;16.10;;;;;;;4.89;100.00;98214.63;5111704;28;20211;-58
2024/01/28 09:12:30;;;;;;;17.83;15.33;;;;;;;4.89;100.00;98209.38;5110866;28;20296;-58
2024/01/28 09:14:56;;;;;;;17.07;14.97;;;;;;;4.88;100.00;98218.19;5111018;28;20201;-58
2024/01/28 09:17:24;;;;;;;17.57;15.77;;;;;;;4.94;100.00;98228.38;5111950;28;20209;-57
2024/01/28 09:19:51;;;;;;;17.67;15.40;;;;;;;4.88;100.00;98226.03;5111138;28;20190;-58
2024/01/28 09:22:17;;;;;;;18.47;15.70;;;;;;;4.89;100.00;98224.25;5111478;28;20197;-58
2024/01/28 09:24:44;;;;;;;15.97;14.30;;;;;;;4.93;100.00;98226.66;5111459;28;20211;-58
2024/01/28 09:27:11;;;;;;;17.40;15.40;;;;;;;4.88;100.00;98239.16;5111494;28;20292;-58
2024/01/28 09:29:38;;;;;;;19.10;15.07;;;;;;;4.87;100.00;98240.06;5111556;28;20446;-58
2024/01/28 09:32:05;;;;;;;15.93;14.27;;;;;;;4.90;100.00;98239.91;5111144;28;20205;-58
2024/01/28 09:34:33;;;;;;;15.77;14.07;;;;;;;4.89;100.00;98230.34;5109771;28;20313;-58
2024/01/28 09:37:00;;;;;;;19.63;13.73;;;;;;;4.81;100.00;98229.84;5111283;28;20648;-58
2024/01/28 09:39:28;;;;;;;17.33;15.53;;;;;;;4.88;100.00;98233.06;5110591;28;20232;-58
2024/01/28 09:41:57;;;;;;;17.23;14.77;;;;;;;4.93;100.00;98226.66;5115087;28;20262;-58
2024/01/28 09:44:23;;;;;;;16.60;14.50;;;;;;;4.96;100.00;98237.00;5115240;27;20646;-58
2024/01/28 09:46:50;;;;;;;17.67;15.60;;;;;;;4.98;100.00;98235.19;5115050;27;20211;-58
2024/01/28 09:49:17;;;;;;;17.87;14.73;;;;;;;4.98;100.00;98229.94;5114996;28;20293;-58
2024/01/28 09:51:46;;;;;;;16.33;14.50;;;;;;;5.05;100.00;98234.91;5114642;28;20201;-58
2024/01/28 09:54:13;;;;;;;16.57;14.83;;;;;;;5.14;100.00;98242.31;5114598;28;21364;-58
2024/01/28 09:56:41;;;;;;;19.47;16.03;;;;;;;5.17;100.00;98239.59;5114907;28;20630;-58
2024/01/28 09:59:09;;;;;;;18.40;15.77;;;;;;;5.00;100.00;98241.19;5114161;28;20213;-58
2024/01/28 10:01:36;;;;;;;18.83;15.63;;;;;;;4.88;100.00;98249.63;5114671;28;20330;-58
2024/01/28 10:04:03;;;;;;;18.97;15.17;;;;;;;4.85;100.00;98243.69;5115166;28;20529;-58
2024/01/28 10:06:29;;;;;;;17.03;15.23;;;;;;;4.91;100.00;98244.25;5115846;28;20203;-58
2024/01/28 10:08:58;;;;;;;16.93;15.13;;;;;;;4.83;100.00;98240.25;5116446;28;20190;-58
2024/01/28 10:11:24;;;;;;;16.93;15.03;;;;;;;4.88;100.00;98243.53;5117720;28;20201;-58
2024/01/28 10:13:53;;;;;;;16.97;14.27;;;;;;;4.93;100.00;98231.91;5117838;28;20520;-58
2024/01/28 10:16:23;;;;;;;17.90;14.63;;;;;;;4.96;100.00;98229.16;5116836;28;20239;-58
2024/01/28 10:18:50;;;;;;;17.00;15.20;;;;;;;4.89;100.00;98234.72;5116632;28;20213;-58
2024/01/28 10:21:16;;;;;;;17.83;15.17;;;;;;;4.92;100.00;98232.81;5125600;28;20261;-58
2024/01/28 10:23:43;;;;;;;16.83;14.80;;;;;;;4.83;100.00;98235.88;5123147;28;20304;-58
2024/01/28 10:26:11;;;;;;;16.20;14.43;;;;;;;4.81;100.00;98234.25;5117783;28;20211;-58
2024/01/28 10:28:39;;;;;;;16.17;14.50;;;;;;;4.97;100.00;98233.47;5116424;28;20292;-58
2024/01/28 10:31:05;;;;;;;16.43;14.73;;;;;;;4.84;100.00;98223.63;5115248;28;20227;-58
2024/01/28 10:33:32;;;;;;;15.63;14.00;;;;;;;4.94;100.00;98227.53;5117662;28;20292;-58
2024/01/28 10:36:01;;;;;;;16.33;14.53;;;;;;;4.86;100.00;98220.00;5122661;28;20228;-58
2024/01/28 10:38:28;;;;;;;16.27;14.57;;;;;;;4.98;100.00;98221.22;5119593;28;20555;-57
2024/01/28 10:40:55;;;;;;;14.83;13.17;;;;;;;4.97;100.00;98212.50;5113879;28;20237;-57
2024/01/28 10:43:26;;;;;;;15.47;13.27;;;;;;;5.11;100.00;98208.38;5114575;28;20211;-59
2024/01/28 10:45:56;;;;;;;13.77;12.27;;;;;;;5.26;100.00;98207.69;5113740;28;20205;-58
2024/01/28 10:48:25;;;;;;;16.40;14.50;;;;;;;5.25;100.00;98211.22;5116547;28;20216;-58
2024/01/28 10:50:52;;;;;;;15.40;13.77;;;;;;;5.12;100.00;98210.94;5114173;28;20209;-57
2024/01/28 10:53:19;;;;;;;17.13;14.70;;;;;;;5.24;100.00;98206.91;5113100;28;20211;-58
2024/01/28 10:55:46;;;;;;;15.47;13.33;;;;;;;5.34;100.00;98209.03;5112871;28;20201;-57
2024/01/28 10:58:13;;;;;;;15.87;14.27;;;;;;;5.39;100.00;98200.91;5113858;28;20201;-58
2024/01/28 11:00:43;;;;;;;15.53;13.37;;;;;;;5.38;100.00;98199.25;5112832;28;20241;-58
2024/01/28 11:03:10;;;;;;;16.53;13.60;;;;;;;5.40;100.00;98189.50;5113509;28;20549;-58
2024/01/28 11:05:37;;;;;;;14.70;12.97;;;;;;;5.31;100.00;98188.19;5113858;28;20205;-58
2024/01/28 11:08:06;;;;;;;17.03;14.40;;;;;;;5.39;100.00;98182.56;5113693;28;20209;-58
2024/01/28 11:10:33;;;;;;;16.53;13.57;;;;;;;5.48;100.00;98182.97;5112755;28;20524;-58
2024/01/28 11:13:05;;;;;;;15.10;13.60;;;;;;;5.51;100.00;98187.22;5113174;28;20197;-57
2024/01/28 11:15:33;;;;;;;15.50;13.83;;;;;;;5.55;100.00;98188.78;5113589;28;20217;-58
2024/01/28 11:18:02;;;;;;;15.57;13.90;;;;;;;5.46;100.00;98183.94;5113295;28;20223;-58
2024/01/28 11:20:31;;;;;;;15.03;12.90;;;;;;;5.54;100.00;98187.06;5112807;28;20225;-58
2024/01/28 11:22:59;;;;;;;16.57;14.77;;;;;;;5.52;100.00;98181.06;5113691;28;20201;-57